ΕΜΥ, Εθνική Μετεωρολογική Υπηρεσία - Δελτία Καιρού, Προγνώσεις

ΑΕΡΟΝΑΥΤΙΛΙΑ

GREEK AIRPORTS CODES

TAF LGSM 230200Z 2303/2312 36012KT 9999 FEW012 BKN025 PROB30 TEMPO 2309/2312 5000 SNRA SCT010 BKN025=

EUROPEAN AIRPORTS CODES

LGMG 221500Z 03010KT 9999 FEW010 BKN025 03/M01 Q1013 RMK BKN070=